sensor_id;sensor_type;location;lat;lon;timestamp;P1;durP1;ratioP1;P2;durP2;ratioP2
43744;SDS011;29359;53.048;8.732;2024-01-30T00:01:31;12.75;;;9.65;;
43744;SDS011;29359;53.048;8.732;2024-01-30T00:03:33;10.50;;;9.02;;
43744;SDS011;29359;53.048;8.732;2024-01-30T00:05:34;13.15;;;9.63;;
43744;SDS011;29359;53.048;8.732;2024-01-30T00:07:36;15.18;;;10.23;;
43744;SDS011;29359;53.048;8.732;2024-01-30T00:09:38;17.23;;;10.45;;
43744;SDS011;29359;53.048;8.732;2024-01-30T00:11:41;12.15;;;9.50;;
43744;SDS011;29359;53.048;8.732;2024-01-30T00:13:43;11.63;;;9.70;;
43744;SDS011;29359;53.048;8.732;2024-01-30T00:15:44;14.35;;;9.70;;
43744;SDS011;29359;53.048;8.732;2024-01-30T00:17:46;15.18;;;9.88;;
43744;SDS011;29359;53.048;8.732;2024-01-30T00:19:48;13.80;;;10.02;;
43744;SDS011;29359;53.048;8.732;2024-01-30T00:21:50;12.73;;;9.85;;
43744;SDS011;29359;53.048;8.732;2024-01-30T00:23:52;12.43;;;9.73;;
43744;SDS011;29359;53.048;8.732;2024-01-30T00:25:54;15.45;;;10.00;;
43744;SDS011;29359;53.048;8.732;2024-01-30T00:27:58;12.50;;;9.68;;
43744;SDS011;29359;53.048;8.732;2024-01-30T00:30:00;14.48;;;10.65;;
43744;SDS011;29359;53.048;8.732;2024-01-30T00:32:01;15.50;;;9.85;;
43744;SDS011;29359;53.048;8.732;2024-01-30T00:34:03;12.80;;;9.48;;
43744;SDS011;29359;53.048;8.732;2024-01-30T00:36:05;13.82;;;10.18;;
43744;SDS011;29359;53.048;8.732;2024-01-30T00:38:10;15.98;;;9.20;;
43744;SDS011;29359;53.048;8.732;2024-01-30T00:40:12;15.95;;;10.15;;
43744;SDS011;29359;53.048;8.732;2024-01-30T00:42:17;12.57;;;9.20;;
43744;SDS011;29359;53.048;8.732;2024-01-30T00:44:19;14.13;;;9.98;;
43744;SDS011;29359;53.048;8.732;2024-01-30T00:46:20;12.90;;;10.50;;
43744;SDS011;29359;53.048;8.732;2024-01-30T00:48:22;11.10;;;9.50;;
43744;SDS011;29359;53.048;8.732;2024-01-30T00:50:24;14.20;;;9.50;;
43744;SDS011;29359;53.048;8.732;2024-01-30T00:52:26;14.52;;;9.98;;
43744;SDS011;29359;53.048;8.732;2024-01-30T00:54:28;13.70;;;9.38;;
43744;SDS011;29359;53.048;8.732;2024-01-30T00:56:29;13.85;;;9.20;;
43744;SDS011;29359;53.048;8.732;2024-01-30T00:58:32;15.52;;;10.00;;
43744;SDS011;29359;53.048;8.732;2024-01-30T01:00:34;12.20;;;9.35;;
43744;SDS011;29359;53.048;8.732;2024-01-30T01:02:35;15.27;;;9.82;;
43744;SDS011;29359;53.048;8.732;2024-01-30T01:04:37;12.20;;;9.68;;
43744;SDS011;29359;53.048;8.732;2024-01-30T01:06:39;14.60;;;9.90;;
43744;SDS011;29359;53.048;8.732;2024-01-30T01:08:44;12.32;;;9.75;;
43744;SDS011;29359;53.048;8.732;2024-01-30T01:10:45;15.57;;;10.45;;
43744;SDS011;29359;53.048;8.732;2024-01-30T01:12:47;13.98;;;9.48;;
43744;SDS011;29359;53.048;8.732;2024-01-30T01:14:49;13.25;;;9.82;;
43744;SDS011;29359;53.048;8.732;2024-01-30T01:16:51;19.92;;;12.25;;
43744;SDS011;29359;53.048;8.732;2024-01-30T01:18:53;24.48;;;14.77;;
43744;SDS011;29359;53.048;8.732;2024-01-30T01:20:55;21.63;;;14.90;;
43744;SDS011;29359;53.048;8.732;2024-01-30T01:22:59;15.10;;;10.10;;
43744;SDS011;29359;53.048;8.732;2024-01-30T01:25:01;17.10;;;10.00;;
43744;SDS011;29359;53.048;8.732;2024-01-30T01:27:03;15.90;;;9.95;;
43744;SDS011;29359;53.048;8.732;2024-01-30T01:29:07;11.50;;;8.98;;
43744;SDS011;29359;53.048;8.732;2024-01-30T01:31:13;15.95;;;9.15;;
43744;SDS011;29359;53.048;8.732;2024-01-30T01:33:15;14.75;;;9.05;;
43744;SDS011;29359;53.048;8.732;2024-01-30T01:35:17;16.55;;;9.75;;
43744;SDS011;29359;53.048;8.732;2024-01-30T01:37:19;16.90;;;9.65;;
43744;SDS011;29359;53.048;8.732;2024-01-30T01:39:23;12.40;;;10.00;;
43744;SDS011;29359;53.048;8.732;2024-01-30T01:41:29;13.70;;;9.30;;
43744;SDS011;29359;53.048;8.732;2024-01-30T01:43:32;16.02;;;9.85;;
43744;SDS011;29359;53.048;8.732;2024-01-30T01:45:33;14.15;;;9.20;;
43744;SDS011;29359;53.048;8.732;2024-01-30T01:47:35;17.98;;;9.43;;
43744;SDS011;29359;53.048;8.732;2024-01-30T01:49:37;13.52;;;9.25;;
43744;SDS011;29359;53.048;8.732;2024-01-30T01:51:39;11.07;;;9.45;;
43744;SDS011;29359;53.048;8.732;2024-01-30T01:53:42;12.38;;;9.63;;
43744;SDS011;29359;53.048;8.732;2024-01-30T01:55:45;13.23;;;9.52;;
43744;SDS011;29359;53.048;8.732;2024-01-30T01:57:47;13.65;;;9.98;;
43744;SDS011;29359;53.048;8.732;2024-01-30T01:59:49;13.40;;;8.77;;
43744;SDS011;29359;53.048;8.732;2024-01-30T02:01:51;16.52;;;10.02;;
43744;SDS011;29359;53.048;8.732;2024-01-30T02:03:55;13.82;;;9.57;;
43744;SDS011;29359;53.048;8.732;2024-01-30T02:05:57;12.85;;;9.02;;
43744;SDS011;29359;53.048;8.732;2024-01-30T02:07:59;10.55;;;8.50;;
43744;SDS011;29359;53.048;8.732;2024-01-30T02:10:01;12.38;;;8.82;;
43744;SDS011;29359;53.048;8.732;2024-01-30T02:12:05;16.80;;;9.52;;
43744;SDS011;29359;53.048;8.732;2024-01-30T02:14:07;10.45;;;8.55;;
43744;SDS011;29359;53.048;8.732;2024-01-30T02:16:09;11.63;;;9.00;;
43744;SDS011;29359;53.048;8.732;2024-01-30T02:18:11;11.40;;;8.88;;
43744;SDS011;29359;53.048;8.732;2024-01-30T02:20:13;13.18;;;9.07;;
43744;SDS011;29359;53.048;8.732;2024-01-30T02:22:15;14.77;;;8.80;;
43744;SDS011;29359;53.048;8.732;2024-01-30T02:24:18;10.60;;;8.65;;
43744;SDS011;29359;53.048;8.732;2024-01-30T02:26:20;11.15;;;8.27;;
43744;SDS011;29359;53.048;8.732;2024-01-30T02:28:21;12.68;;;9.20;;
43744;SDS011;29359;53.048;8.732;2024-01-30T02:30:23;12.25;;;9.15;;
43744;SDS011;29359;53.048;8.732;2024-01-30T02:32:25;11.75;;;9.00;;
43744;SDS011;29359;53.048;8.732;2024-01-30T02:34:27;11.73;;;9.10;;
43744;SDS011;29359;53.048;8.732;2024-01-30T02:36:29;12.73;;;9.70;;
43744;SDS011;29359;53.048;8.732;2024-01-30T02:38:31;10.35;;;8.13;;
43744;SDS011;29359;53.048;8.732;2024-01-30T02:40:32;11.70;;;9.00;;
43744;SDS011;29359;53.048;8.732;2024-01-30T02:42:34;11.77;;;9.20;;
43744;SDS011;29359;53.048;8.732;2024-01-30T02:44:36;17.08;;;9.38;;
43744;SDS011;29359;53.048;8.732;2024-01-30T02:46:38;13.15;;;9.23;;
43744;SDS011;29359;53.048;8.732;2024-01-30T02:48:39;13.98;;;9.70;;
43744;SDS011;29359;53.048;8.732;2024-01-30T02:50:41;11.40;;;8.65;;
43744;SDS011;29359;53.048;8.732;2024-01-30T02:52:43;11.57;;;7.90;;
43744;SDS011;29359;53.048;8.732;2024-01-30T02:54:48;12.18;;;8.88;;
43744;SDS011;29359;53.048;8.732;2024-01-30T02:56:49;10.38;;;8.43;;
43744;SDS011;29359;53.048;8.732;2024-01-30T02:58:51;12.32;;;9.32;;
43744;SDS011;29359;53.048;8.732;2024-01-30T03:00:53;9.70;;;8.45;;
43744;SDS011;29359;53.048;8.732;2024-01-30T03:02:55;11.57;;;9.35;;
43744;SDS011;29359;53.048;8.732;2024-01-30T03:04:57;9.85;;;8.77;;
43744;SDS011;29359;53.048;8.732;2024-01-30T03:06:58;13.00;;;9.15;;
43744;SDS011;29359;53.048;8.732;2024-01-30T03:09:00;11.80;;;8.98;;
43744;SDS011;29359;53.048;8.732;2024-01-30T03:11:02;11.88;;;8.98;;
43744;SDS011;29359;53.048;8.732;2024-01-30T03:13:04;14.30;;;8.85;;
43744;SDS011;29359;53.048;8.732;2024-01-30T03:15:06;11.48;;;9.20;;
43744;SDS011;29359;53.048;8.732;2024-01-30T03:17:08;16.80;;;9.63;;
43744;SDS011;29359;53.048;8.732;2024-01-30T03:19:09;15.75;;;9.50;;
43744;SDS011;29359;53.048;8.732;2024-01-30T03:21:11;10.02;;;8.50;;
43744;SDS011;29359;53.048;8.732;2024-01-30T03:23:13;12.63;;;8.23;;
43744;SDS011;29359;53.048;8.732;2024-01-30T03:25:15;13.13;;;9.23;;
43744;SDS011;29359;53.048;8.732;2024-01-30T03:27:17;15.07;;;10.05;;
43744;SDS011;29359;53.048;8.732;2024-01-30T03:29:18;15.70;;;9.57;;
43744;SDS011;29359;53.048;8.732;2024-01-30T03:31:20;14.63;;;8.95;;
43744;SDS011;29359;53.048;8.732;2024-01-30T03:33:22;12.57;;;9.18;;
43744;SDS011;29359;53.048;8.732;2024-01-30T03:35:24;11.32;;;8.82;;
43744;SDS011;29359;53.048;8.732;2024-01-30T03:37:26;13.30;;;8.93;;
43744;SDS011;29359;53.048;8.732;2024-01-30T03:39:28;16.73;;;9.32;;
43744;SDS011;29359;53.048;8.732;2024-01-30T03:41:30;12.48;;;8.57;;
43744;SDS011;29359;53.048;8.732;2024-01-30T03:43:32;12.73;;;9.68;;
43744;SDS011;29359;53.048;8.732;2024-01-30T03:45:34;13.75;;;9.00;;
43744;SDS011;29359;53.048;8.732;2024-01-30T03:47:35;13.25;;;9.32;;
43744;SDS011;29359;53.048;8.732;2024-01-30T03:49:37;11.05;;;8.65;;
43744;SDS011;29359;53.048;8.732;2024-01-30T03:51:39;10.70;;;9.60;;
43744;SDS011;29359;53.048;8.732;2024-01-30T03:53:41;12.45;;;9.32;;
43744;SDS011;29359;53.048;8.732;2024-01-30T03:55:44;10.38;;;8.52;;
43744;SDS011;29359;53.048;8.732;2024-01-30T03:57:45;13.88;;;9.45;;
43744;SDS011;29359;53.048;8.732;2024-01-30T03:59:47;12.95;;;9.23;;
43744;SDS011;29359;53.048;8.732;2024-01-30T04:01:50;11.82;;;9.45;;
43744;SDS011;29359;53.048;8.732;2024-01-30T04:03:52;11.85;;;9.18;;
43744;SDS011;29359;53.048;8.732;2024-01-30T04:05:54;13.43;;;10.68;;
43744;SDS011;29359;53.048;8.732;2024-01-30T04:07:56;14.85;;;9.98;;
43744;SDS011;29359;53.048;8.732;2024-01-30T04:09:58;13.93;;;9.70;;
43744;SDS011;29359;53.048;8.732;2024-01-30T04:12:00;11.07;;;9.50;;
43744;SDS011;29359;53.048;8.732;2024-01-30T04:14:04;13.20;;;10.05;;
43744;SDS011;29359;53.048;8.732;2024-01-30T04:16:06;16.05;;;9.18;;
43744;SDS011;29359;53.048;8.732;2024-01-30T04:18:08;14.55;;;10.65;;
43744;SDS011;29359;53.048;8.732;2024-01-30T04:20:13;14.82;;;10.00;;
43744;SDS011;29359;53.048;8.732;2024-01-30T04:22:18;14.73;;;10.00;;
43744;SDS011;29359;53.048;8.732;2024-01-30T04:24:20;14.07;;;9.35;;
43744;SDS011;29359;53.048;8.732;2024-01-30T04:26:22;15.30;;;10.13;;
43744;SDS011;29359;53.048;8.732;2024-01-30T04:28:23;12.93;;;9.77;;
43744;SDS011;29359;53.048;8.732;2024-01-30T04:30:25;13.00;;;9.88;;
43744;SDS011;29359;53.048;8.732;2024-01-30T04:32:27;13.93;;;9.77;;
43744;SDS011;29359;53.048;8.732;2024-01-30T04:34:29;11.13;;;9.95;;
43744;SDS011;29359;53.048;8.732;2024-01-30T04:36:31;17.30;;;10.65;;
43744;SDS011;29359;53.048;8.732;2024-01-30T04:38:32;13.70;;;10.05;;
43744;SDS011;29359;53.048;8.732;2024-01-30T04:40:34;14.57;;;10.70;;
43744;SDS011;29359;53.048;8.732;2024-01-30T04:42:36;13.13;;;9.93;;
43744;SDS011;29359;53.048;8.732;2024-01-30T04:44:38;15.25;;;10.90;;
43744;SDS011;29359;53.048;8.732;2024-01-30T04:46:39;13.63;;;9.75;;
43744;SDS011;29359;53.048;8.732;2024-01-30T04:48:41;13.70;;;10.25;;
43744;SDS011;29359;53.048;8.732;2024-01-30T04:50:43;16.05;;;10.65;;
43744;SDS011;29359;53.048;8.732;2024-01-30T04:52:45;15.05;;;10.43;;
43744;SDS011;29359;53.048;8.732;2024-01-30T04:54:47;14.30;;;10.13;;
43744;SDS011;29359;53.048;8.732;2024-01-30T04:56:48;16.63;;;10.18;;
43744;SDS011;29359;53.048;8.732;2024-01-30T04:58:50;13.98;;;10.43;;
43744;SDS011;29359;53.048;8.732;2024-01-30T05:00:52;18.48;;;9.93;;
43744;SDS011;29359;53.048;8.732;2024-01-30T05:02:55;16.42;;;10.57;;
43744;SDS011;29359;53.048;8.732;2024-01-30T05:04:57;13.20;;;10.43;;
43744;SDS011;29359;53.048;8.732;2024-01-30T05:06:59;15.05;;;10.48;;
43744;SDS011;29359;53.048;8.732;2024-01-30T05:09:01;14.73;;;10.85;;
43744;SDS011;29359;53.048;8.732;2024-01-30T05:11:04;16.63;;;10.07;;
43744;SDS011;29359;53.048;8.732;2024-01-30T05:13:06;13.80;;;10.30;;
43744;SDS011;29359;53.048;8.732;2024-01-30T05:15:08;17.55;;;10.57;;
43744;SDS011;29359;53.048;8.732;2024-01-30T05:17:10;12.82;;;9.88;;
43744;SDS011;29359;53.048;8.732;2024-01-30T05:19:14;13.35;;;9.50;;
43744;SDS011;29359;53.048;8.732;2024-01-30T05:21:16;14.82;;;9.90;;
43744;SDS011;29359;53.048;8.732;2024-01-30T05:23:18;17.60;;;10.60;;
43744;SDS011;29359;53.048;8.732;2024-01-30T05:25:19;16.17;;;9.70;;
43744;SDS011;29359;53.048;8.732;2024-01-30T05:27:21;14.35;;;10.25;;
43744;SDS011;29359;53.048;8.732;2024-01-30T05:29:23;13.82;;;10.65;;
43744;SDS011;29359;53.048;8.732;2024-01-30T05:31:25;13.60;;;9.43;;
43744;SDS011;29359;53.048;8.732;2024-01-30T05:33:28;13.18;;;10.45;;
43744;SDS011;29359;53.048;8.732;2024-01-30T05:35:30;13.30;;;10.23;;
43744;SDS011;29359;53.048;8.732;2024-01-30T05:37:32;15.82;;;9.70;;
43744;SDS011;29359;53.048;8.732;2024-01-30T05:39:34;14.82;;;10.57;;
43744;SDS011;29359;53.048;8.732;2024-01-30T05:41:37;11.82;;;9.40;;
43744;SDS011;29359;53.048;8.732;2024-01-30T05:43:38;16.35;;;10.70;;
43744;SDS011;29359;53.048;8.732;2024-01-30T05:45:40;13.55;;;9.50;;
43744;SDS011;29359;53.048;8.732;2024-01-30T05:47:42;14.57;;;10.30;;
43744;SDS011;29359;53.048;8.732;2024-01-30T05:49:44;12.40;;;9.80;;
43744;SDS011;29359;53.048;8.732;2024-01-30T05:51:46;16.40;;;10.75;;
43744;SDS011;29359;53.048;8.732;2024-01-30T05:53:48;15.10;;;9.98;;
43744;SDS011;29359;53.048;8.732;2024-01-30T05:55:49;13.68;;;10.27;;
43744;SDS011;29359;53.048;8.732;2024-01-30T05:57:51;14.52;;;10.48;;
43744;SDS011;29359;53.048;8.732;2024-01-30T05:59:54;13.55;;;10.02;;
43744;SDS011;29359;53.048;8.732;2024-01-30T06:01:56;13.13;;;10.13;;
43744;SDS011;29359;53.048;8.732;2024-01-30T06:03:58;15.55;;;10.45;;
43744;SDS011;29359;53.048;8.732;2024-01-30T06:06:03;15.45;;;10.07;;
43744;SDS011;29359;53.048;8.732;2024-01-30T06:08:05;17.15;;;10.95;;
43744;SDS011;29359;53.048;8.732;2024-01-30T06:10:07;15.35;;;10.40;;
43744;SDS011;29359;53.048;8.732;2024-01-30T06:12:10;14.38;;;10.48;;
43744;SDS011;29359;53.048;8.732;2024-01-30T06:14:13;16.25;;;10.93;;
43744;SDS011;29359;53.048;8.732;2024-01-30T06:16:15;13.18;;;10.38;;
43744;SDS011;29359;53.048;8.732;2024-01-30T06:18:17;13.70;;;10.18;;
43744;SDS011;29359;53.048;8.732;2024-01-30T06:20:19;15.30;;;11.13;;
43744;SDS011;29359;53.048;8.732;2024-01-30T06:22:22;14.65;;;10.93;;
43744;SDS011;29359;53.048;8.732;2024-01-30T06:24:24;15.27;;;11.43;;
43744;SDS011;29359;53.048;8.732;2024-01-30T06:26:25;19.90;;;11.60;;
43744;SDS011;29359;53.048;8.732;2024-01-30T06:28:27;14.32;;;11.63;;
43744;SDS011;29359;53.048;8.732;2024-01-30T06:30:29;17.70;;;10.88;;
43744;SDS011;29359;53.048;8.732;2024-01-30T06:32:31;14.55;;;11.65;;
43744;SDS011;29359;53.048;8.732;2024-01-30T06:34:35;14.13;;;10.90;;
43744;SDS011;29359;53.048;8.732;2024-01-30T06:36:37;13.05;;;10.25;;
43744;SDS011;29359;53.048;8.732;2024-01-30T06:38:40;14.25;;;10.82;;
43744;SDS011;29359;53.048;8.732;2024-01-30T06:40:42;16.10;;;10.98;;
43744;SDS011;29359;53.048;8.732;2024-01-30T06:42:44;16.35;;;11.27;;
43744;SDS011;29359;53.048;8.732;2024-01-30T06:44:46;15.88;;;11.20;;
43744;SDS011;29359;53.048;8.732;2024-01-30T06:46:48;16.67;;;12.13;;
43744;SDS011;29359;53.048;8.732;2024-01-30T06:48:50;19.50;;;12.05;;
43744;SDS011;29359;53.048;8.732;2024-01-30T06:50:54;16.50;;;11.85;;
43744;SDS011;29359;53.048;8.732;2024-01-30T06:52:56;17.25;;;12.02;;
43744;SDS011;29359;53.048;8.732;2024-01-30T06:54:58;14.70;;;11.15;;
43744;SDS011;29359;53.048;8.732;2024-01-30T06:57:00;16.27;;;11.05;;
43744;SDS011;29359;53.048;8.732;2024-01-30T06:59:02;16.00;;;11.68;;
43744;SDS011;29359;53.048;8.732;2024-01-30T07:01:03;18.45;;;11.63;;
43744;SDS011;29359;53.048;8.732;2024-01-30T07:03:05;16.40;;;11.60;;
43744;SDS011;29359;53.048;8.732;2024-01-30T07:05:07;14.65;;;11.38;;
43744;SDS011;29359;53.048;8.732;2024-01-30T07:07:09;17.38;;;11.98;;
43744;SDS011;29359;53.048;8.732;2024-01-30T07:09:14;14.23;;;11.05;;
43744;SDS011;29359;53.048;8.732;2024-01-30T07:11:19;16.27;;;10.90;;
43744;SDS011;29359;53.048;8.732;2024-01-30T07:13:23;15.95;;;11.57;;
43744;SDS011;29359;53.048;8.732;2024-01-30T07:15:25;19.17;;;11.30;;
43744;SDS011;29359;53.048;8.732;2024-01-30T07:17:26;17.33;;;10.65;;
43744;SDS011;29359;53.048;8.732;2024-01-30T07:19:28;16.20;;;11.30;;
43744;SDS011;29359;53.048;8.732;2024-01-30T07:21:31;16.10;;;11.48;;
43744;SDS011;29359;53.048;8.732;2024-01-30T07:23:32;17.33;;;11.20;;
43744;SDS011;29359;53.048;8.732;2024-01-30T07:25:36;16.40;;;11.90;;
43744;SDS011;29359;53.048;8.732;2024-01-30T07:27:38;16.90;;;11.50;;
43744;SDS011;29359;53.048;8.732;2024-01-30T07:29:39;15.25;;;11.90;;
43744;SDS011;29359;53.048;8.732;2024-01-30T07:31:41;15.98;;;12.75;;
43744;SDS011;29359;53.048;8.732;2024-01-30T07:33:43;16.73;;;12.23;;
43744;SDS011;29359;53.048;8.732;2024-01-30T07:35:45;18.15;;;13.25;;
43744;SDS011;29359;53.048;8.732;2024-01-30T07:37:47;17.88;;;12.30;;
43744;SDS011;29359;53.048;8.732;2024-01-30T07:39:49;17.63;;;12.63;;
43744;SDS011;29359;53.048;8.732;2024-01-30T07:41:51;18.60;;;12.18;;
43744;SDS011;29359;53.048;8.732;2024-01-30T07:43:53;18.25;;;11.98;;
43744;SDS011;29359;53.048;8.732;2024-01-30T07:45:55;19.33;;;12.80;;
43744;SDS011;29359;53.048;8.732;2024-01-30T07:47:57;16.05;;;12.15;;
43744;SDS011;29359;53.048;8.732;2024-01-30T07:49:59;17.60;;;12.75;;
43744;SDS011;29359;53.048;8.732;2024-01-30T07:52:01;18.70;;;12.48;;
43744;SDS011;29359;53.048;8.732;2024-01-30T07:54:03;19.98;;;13.52;;
43744;SDS011;29359;53.048;8.732;2024-01-30T07:56:05;18.10;;;13.48;;
43744;SDS011;29359;53.048;8.732;2024-01-30T07:58:07;16.88;;;12.80;;
43744;SDS011;29359;53.048;8.732;2024-01-30T08:00:09;22.15;;;14.55;;
43744;SDS011;29359;53.048;8.732;2024-01-30T08:02:14;21.33;;;14.05;;
43744;SDS011;29359;53.048;8.732;2024-01-30T08:04:16;24.27;;;14.85;;
43744;SDS011;29359;53.048;8.732;2024-01-30T08:06:19;18.15;;;13.50;;
43744;SDS011;29359;53.048;8.732;2024-01-30T08:08:21;19.27;;;13.52;;
43744;SDS011;29359;53.048;8.732;2024-01-30T08:10:23;23.40;;;13.75;;
43744;SDS011;29359;53.048;8.732;2024-01-30T08:12:25;21.05;;;14.00;;
43744;SDS011;29359;53.048;8.732;2024-01-30T08:14:26;22.42;;;14.00;;
43744;SDS011;29359;53.048;8.732;2024-01-30T08:16:29;20.98;;;13.55;;
43744;SDS011;29359;53.048;8.732;2024-01-30T08:18:31;34.47;;;13.77;;
43744;SDS011;29359;53.048;8.732;2024-01-30T08:20:33;27.67;;;14.70;;
43744;SDS011;29359;53.048;8.732;2024-01-30T08:22:35;18.95;;;14.25;;
43744;SDS011;29359;53.048;8.732;2024-01-30T08:24:37;28.13;;;14.73;;
43744;SDS011;29359;53.048;8.732;2024-01-30T08:26:38;20.58;;;15.65;;
43744;SDS011;29359;53.048;8.732;2024-01-30T08:28:40;36.97;;;15.93;;
43744;SDS011;29359;53.048;8.732;2024-01-30T08:30:42;28.27;;;15.60;;
43744;SDS011;29359;53.048;8.732;2024-01-30T08:32:44;31.92;;;15.20;;
43744;SDS011;29359;53.048;8.732;2024-01-30T08:34:46;28.13;;;15.18;;
43744;SDS011;29359;53.048;8.732;2024-01-30T08:36:48;26.15;;;15.75;;
43744;SDS011;29359;53.048;8.732;2024-01-30T08:38:49;24.38;;;15.38;;
43744;SDS011;29359;53.048;8.732;2024-01-30T08:40:54;25.58;;;16.60;;
43744;SDS011;29359;53.048;8.732;2024-01-30T08:42:57;25.45;;;16.55;;
43744;SDS011;29359;53.048;8.732;2024-01-30T08:45:00;21.23;;;16.02;;
43744;SDS011;29359;53.048;8.732;2024-01-30T08:47:02;23.63;;;15.68;;
43744;SDS011;29359;53.048;8.732;2024-01-30T08:49:04;22.23;;;15.88;;
43744;SDS011;29359;53.048;8.732;2024-01-30T08:51:06;22.13;;;16.02;;
43744;SDS011;29359;53.048;8.732;2024-01-30T08:53:09;19.30;;;15.32;;
43744;SDS011;29359;53.048;8.732;2024-01-30T08:55:11;21.42;;;15.85;;
43744;SDS011;29359;53.048;8.732;2024-01-30T08:57:13;23.13;;;16.27;;
43744;SDS011;29359;53.048;8.732;2024-01-30T08:59:15;23.52;;;16.67;;
43744;SDS011;29359;53.048;8.732;2024-01-30T09:01:17;22.10;;;15.88;;
43744;SDS011;29359;53.048;8.732;2024-01-30T09:03:19;24.10;;;15.90;;
43744;SDS011;29359;53.048;8.732;2024-01-30T09:05:20;20.73;;;15.45;;
43744;SDS011;29359;53.048;8.732;2024-01-30T09:07:22;27.35;;;16.40;;
43744;SDS011;29359;53.048;8.732;2024-01-30T09:09:24;22.00;;;15.77;;
43744;SDS011;29359;53.048;8.732;2024-01-30T09:11:26;23.88;;;15.88;;
43744;SDS011;29359;53.048;8.732;2024-01-30T09:13:28;22.98;;;16.48;;
43744;SDS011;29359;53.048;8.732;2024-01-30T09:15:30;24.50;;;15.80;;
43744;SDS011;29359;53.048;8.732;2024-01-30T09:17:31;22.73;;;16.00;;
43744;SDS011;29359;53.048;8.732;2024-01-30T09:19:34;25.60;;;17.10;;
43744;SDS011;29359;53.048;8.732;2024-01-30T09:21:36;24.83;;;16.55;;
43744;SDS011;29359;53.048;8.732;2024-01-30T09:23:38;21.10;;;15.90;;
43744;SDS011;29359;53.048;8.732;2024-01-30T09:25:40;24.15;;;16.50;;
43744;SDS011;29359;53.048;8.732;2024-01-30T09:27:42;23.02;;;16.00;;
43744;SDS011;29359;53.048;8.732;2024-01-30T09:29:44;22.35;;;15.98;;
43744;SDS011;29359;53.048;8.732;2024-01-30T09:31:46;24.88;;;15.95;;
43744;SDS011;29359;53.048;8.732;2024-01-30T09:33:47;24.80;;;15.57;;
43744;SDS011;29359;53.048;8.732;2024-01-30T09:35:50;20.33;;;14.32;;
43744;SDS011;29359;53.048;8.732;2024-01-30T09:37:52;26.48;;;15.63;;
43744;SDS011;29359;53.048;8.732;2024-01-30T09:39:54;24.27;;;16.13;;
43744;SDS011;29359;53.048;8.732;2024-01-30T09:42:09;21.10;;;15.00;;
43744;SDS011;29359;53.048;8.732;2024-01-30T09:44:16;21.65;;;14.48;;
43744;SDS011;29359;53.048;8.732;2024-01-30T09:46:19;18.98;;;13.68;;
43744;SDS011;29359;53.048;8.732;2024-01-30T09:48:24;17.27;;;14.02;;
43744;SDS011;29359;53.048;8.732;2024-01-30T09:50:27;17.65;;;12.23;;
43744;SDS011;29359;53.048;8.732;2024-01-30T09:52:29;17.08;;;13.25;;
43744;SDS011;29359;53.048;8.732;2024-01-30T09:54:31;20.52;;;12.30;;
43744;SDS011;29359;53.048;8.732;2024-01-30T09:56:37;14.98;;;11.57;;
43744;SDS011;29359;53.048;8.732;2024-01-30T09:58:39;16.65;;;11.18;;
43744;SDS011;29359;53.048;8.732;2024-01-30T10:00:44;18.52;;;11.75;;
43744;SDS011;29359;53.048;8.732;2024-01-30T10:02:46;13.30;;;10.10;;
43744;SDS011;29359;53.048;8.732;2024-01-30T10:04:48;17.33;;;11.10;;
43744;SDS011;29359;53.048;8.732;2024-01-30T10:06:51;15.77;;;10.25;;
43744;SDS011;29359;53.048;8.732;2024-01-30T10:08:53;15.27;;;10.02;;
43744;SDS011;29359;53.048;8.732;2024-01-30T10:10:55;14.10;;;9.75;;
43744;SDS011;29359;53.048;8.732;2024-01-30T10:12:56;11.15;;;9.18;;
43744;SDS011;29359;53.048;8.732;2024-01-30T10:14:58;17.45;;;9.75;;
43744;SDS011;29359;53.048;8.732;2024-01-30T10:17:01;13.13;;;10.07;;
43744;SDS011;29359;53.048;8.732;2024-01-30T10:19:07;14.50;;;9.77;;
43744;SDS011;29359;53.048;8.732;2024-01-30T10:21:09;11.38;;;8.77;;
43744;SDS011;29359;53.048;8.732;2024-01-30T10:23:11;11.63;;;9.30;;
43744;SDS011;29359;53.048;8.732;2024-01-30T10:25:13;16.10;;;9.02;;
43744;SDS011;29359;53.048;8.732;2024-01-30T10:27:15;11.70;;;9.18;;
43744;SDS011;29359;53.048;8.732;2024-01-30T10:29:17;11.50;;;9.57;;
43744;SDS011;29359;53.048;8.732;2024-01-30T10:31:19;14.98;;;9.07;;
43744;SDS011;29359;53.048;8.732;2024-01-30T10:33:20;15.05;;;8.75;;
43744;SDS011;29359;53.048;8.732;2024-01-30T10:35:22;12.63;;;9.25;;
43744;SDS011;29359;53.048;8.732;2024-01-30T10:37:27;14.65;;;9.43;;
43744;SDS011;29359;53.048;8.732;2024-01-30T10:39:34;12.50;;;9.13;;
43744;SDS011;29359;53.048;8.732;2024-01-30T10:41:43;11.82;;;9.13;;
43744;SDS011;29359;53.048;8.732;2024-01-30T10:43:47;11.18;;;8.63;;
43744;SDS011;29359;53.048;8.732;2024-01-30T10:45:57;11.93;;;8.90;;
43744;SDS011;29359;53.048;8.732;2024-01-30T10:48:02;11.25;;;8.30;;
43744;SDS011;29359;53.048;8.732;2024-01-30T10:50:05;11.57;;;8.63;;
43744;SDS011;29359;53.048;8.732;2024-01-30T10:52:11;13.20;;;8.88;;
43744;SDS011;29359;53.048;8.732;2024-01-30T10:54:15;13.73;;;9.02;;
43744;SDS011;29359;53.048;8.732;2024-01-30T10:56:20;9.82;;;8.25;;
43744;SDS011;29359;53.048;8.732;2024-01-30T10:58:22;11.60;;;8.93;;
43744;SDS011;29359;53.048;8.732;2024-01-30T11:00:24;14.13;;;8.05;;
43744;SDS011;29359;53.048;8.732;2024-01-30T11:02:27;10.38;;;7.82;;
43744;SDS011;29359;53.048;8.732;2024-01-30T11:04:36;11.95;;;7.55;;
43744;SDS011;29359;53.048;8.732;2024-01-30T11:06:42;12.85;;;7.65;;
43744;SDS011;29359;53.048;8.732;2024-01-30T11:08:45;9.98;;;7.40;;
43744;SDS011;29359;53.048;8.732;2024-01-30T11:10:47;13.10;;;8.32;;
43744;SDS011;29359;53.048;8.732;2024-01-30T11:12:49;10.52;;;7.30;;
43744;SDS011;29359;53.048;8.732;2024-01-30T11:17:15;12.90;;;6.80;;
43744;SDS011;29359;53.048;8.732;2024-01-30T11:19:22;9.73;;;6.97;;
43744;SDS011;29359;53.048;8.732;2024-01-30T11:21:26;11.43;;;6.75;;
43744;SDS011;29359;53.048;8.732;2024-01-30T11:23:28;9.63;;;6.90;;
43744;SDS011;29359;53.048;8.732;2024-01-30T11:25:30;8.38;;;6.88;;
43744;SDS011;29359;53.048;8.732;2024-01-30T11:27:33;10.52;;;7.18;;
43744;SDS011;29359;53.048;8.732;2024-01-30T11:29:35;9.75;;;6.90;;
43744;SDS011;29359;53.048;8.732;2024-01-30T11:31:37;11.57;;;7.00;;
43744;SDS011;29359;53.048;8.732;2024-01-30T11:33:39;10.00;;;6.80;;
43744;SDS011;29359;53.048;8.732;2024-01-30T11:35:41;13.00;;;7.32;;
43744;SDS011;29359;53.048;8.732;2024-01-30T11:37:45;10.13;;;7.30;;
43744;SDS011;29359;53.048;8.732;2024-01-30T11:39:51;11.95;;;7.53;;
43744;SDS011;29359;53.048;8.732;2024-01-30T11:41:55;11.50;;;7.32;;
43744;SDS011;29359;53.048;8.732;2024-01-30T11:43:57;13.88;;;7.65;;
43744;SDS011;29359;53.048;8.732;2024-01-30T11:45:59;14.82;;;7.32;;
43744;SDS011;29359;53.048;8.732;2024-01-30T11:48:01;8.52;;;6.95;;
43744;SDS011;29359;53.048;8.732;2024-01-30T11:50:05;11.38;;;7.13;;
43744;SDS011;29359;53.048;8.732;2024-01-30T11:52:12;7.35;;;6.00;;
43744;SDS011;29359;53.048;8.732;2024-01-30T11:54:18;8.32;;;6.65;;
43744;SDS011;29359;53.048;8.732;2024-01-30T11:56:19;8.15;;;6.75;;
43744;SDS011;29359;53.048;8.732;2024-01-30T11:58:24;10.55;;;6.95;;
43744;SDS011;29359;53.048;8.732;2024-01-30T12:00:26;13.70;;;7.35;;
43744;SDS011;29359;53.048;8.732;2024-01-30T12:02:28;9.05;;;6.85;;
43744;SDS011;29359;53.048;8.732;2024-01-30T12:04:30;9.20;;;6.93;;